Time;durP1;ratioP1;P1;durP2;ratioP2;P2;SDS_P1;SDS_P2;PMS_P1;PMS_P2;Temp;Humidity;BMP_temperature;BMP_pressure;BME280_temperature;BME280_humidity;BME280_pressure;Samples;Min_cycle;Max_cycle;Signal;HPM_P1;HPM_P2
2023/07/19 00:00:44;;;;;;;0.10;0.10;;;16.10;99.90;;;;;;4987216;28;20280;-86
2023/07/19 00:03:09;;;;;;;0.10;0.10;;;16.10;99.90;;;;;;4986676;28;20218;-86
2023/07/19 00:05:35;;;;;;;0.10;0.10;;;16.10;99.90;;;;;;4985052;28;20197;-86
2023/07/19 00:08:04;;;;;;;0.10;0.10;;;16.00;99.90;;;;;;4985243;28;20233;-86
2023/07/19 00:10:30;;;;;;;0.10;0.10;;;16.00;99.90;;;;;;4972400;28;20181;-85
2023/07/19 00:12:55;;;;;;;0.10;0.10;;;15.90;99.90;;;;;;4989649;28;20445;-85
2023/07/19 00:15:21;;;;;;;0.10;0.10;;;15.80;99.90;;;;;;4971343;28;20185;-85
2023/07/19 00:17:46;;;;;;;0.10;0.10;;;15.80;99.90;;;;;;4991714;28;20193;-84
2023/07/19 00:20:12;;;;;;;0.10;0.10;;;15.80;99.90;;;;;;4990516;28;20209;-85
2023/07/19 00:22:38;;;;;;;0.10;0.10;;;15.70;99.90;;;;;;4976108;28;20316;-83
2023/07/19 00:25:04;;;;;;;0.10;0.10;;;15.70;99.90;;;;;;4986603;28;20189;-84
2023/07/19 00:27:30;;;;;;;0.10;0.10;;;15.70;99.90;;;;;;4989269;28;20447;-84
2023/07/19 00:29:55;;;;;;;0.10;0.10;;;15.70;99.90;;;;;;4991160;28;20456;-84
2023/07/19 00:32:21;;;;;;;0.10;0.10;;;15.60;99.90;;;;;;4988973;28;20189;-84
2023/07/19 00:34:47;;;;;;;0.10;0.10;;;15.60;99.90;;;;;;4990910;28;20239;-85
2023/07/19 00:37:12;;;;;;;0.10;0.10;;;15.60;99.90;;;;;;4983311;28;20456;-84
2023/07/19 00:39:38;;;;;;;0.10;0.10;;;15.60;99.90;;;;;;4986181;28;20193;-85
2023/07/19 00:42:04;;;;;;;0.10;0.10;;;15.50;99.90;;;;;;4972503;28;20216;-84
2023/07/19 00:44:29;;;;;;;0.10;0.10;;;15.50;99.90;;;;;;4987625;28;20232;-83
2023/07/19 00:46:55;;;;;;;0.10;0.10;;;15.70;99.90;;;;;;4990152;28;20251;-85
2023/07/19 00:49:20;;;;;;;0.10;0.10;;;15.60;99.90;;;;;;4991434;28;20189;-84
2023/07/19 00:51:46;;;;;;;0.10;0.10;;;15.60;99.90;;;;;;4990221;28;20568;-84
2023/07/19 00:54:12;;;;;;;0.10;0.10;;;15.60;99.90;;;;;;4988332;28;20189;-83
2023/07/19 00:56:40;;;;;;;0.10;0.10;;;15.60;99.90;;;;;;4971796;28;21267;-84
2023/07/19 00:59:07;;;;;;;0.10;0.10;;;15.60;99.90;;;;;;4984519;28;20276;-84
2023/07/19 01:01:33;;;;;;;0.10;0.10;;;15.70;99.90;;;;;;4988375;28;20494;-84
2023/07/19 01:03:58;;;;;;;0.10;0.10;;;15.70;99.90;;;;;;4989839;28;20531;-84
2023/07/19 01:06:24;;;;;;;0.10;0.10;;;15.70;99.90;;;;;;4965399;28;20451;-84
2023/07/19 01:08:50;;;;;;;0.20;0.20;;;15.60;99.90;;;;;;4984101;28;20204;-85
2023/07/19 01:11:15;;;;;;;0.10;0.10;;;15.60;99.90;;;;;;4989834;28;20188;-84
2023/07/19 01:13:54;;;;;;;0.10;0.10;;;15.60;99.90;;;;;;4986756;28;20241;-84
2023/07/19 01:16:20;;;;;;;0.10;0.10;;;15.60;99.90;;;;;;4986472;28;20641;-84
2023/07/19 01:18:46;;;;;;;0.10;0.10;;;15.60;99.90;;;;;;4985011;28;20450;-83
2023/07/19 01:21:12;;;;;;;0.10;0.10;;;15.60;99.90;;;;;;4967754;28;20191;-84
2023/07/19 01:23:38;;;;;;;0.10;0.10;;;15.60;99.90;;;;;;4989618;28;20539;-84
2023/07/19 01:26:03;;;;;;;0.10;0.10;;;15.50;99.90;;;;;;4988806;28;20208;-83
2023/07/19 01:28:29;;;;;;;0.10;0.10;;;15.50;99.90;;;;;;4989838;28;20444;-84
2023/07/19 01:30:55;;;;;;;0.10;0.10;;;15.40;99.90;;;;;;4970369;28;20189;-83
2023/07/19 01:33:20;;;;;;;0.10;0.10;;;15.40;99.90;;;;;;4991472;28;20197;-84
2023/07/19 01:35:46;;;;;;;0.10;0.10;;;15.50;99.90;;;;;;4986800;28;20185;-83
2023/07/19 01:38:11;;;;;;;0.10;0.10;;;15.50;99.90;;;;;;4986349;28;20685;-84
2023/07/19 01:40:37;;;;;;;0.10;0.10;;;15.50;99.90;;;;;;4988147;28;20892;-84
2023/07/19 01:43:03;;;;;;;0.10;0.10;;;15.30;99.90;;;;;;4986531;28;20283;-84
2023/07/19 01:45:28;;;;;;;0.10;0.10;;;15.30;99.90;;;;;;4981050;28;21017;-84
2023/07/19 01:47:54;;;;;;;0.20;0.20;;;15.30;99.90;;;;;;4988814;28;20192;-83
2023/07/19 01:50:19;;;;;;;0.10;0.10;;;15.20;99.90;;;;;;4989944;28;20181;-85
2023/07/19 01:52:45;;;;;;;0.10;0.10;;;15.10;99.90;;;;;;4987210;28;20602;-85
2023/07/19 01:55:11;;;;;;;0.10;0.10;;;15.20;99.90;;;;;;4988929;28;20228;-85
2023/07/19 01:57:37;;;;;;;0.10;0.10;;;15.20;99.90;;;;;;4989878;28;20248;-84
2023/07/19 02:00:04;;;;;;;0.10;0.10;;;15.20;99.90;;;;;;4988517;28;20452;-83
2023/07/19 02:02:29;;;;;;;0.10;0.10;;;15.20;99.90;;;;;;4988454;28;20221;-84
2023/07/19 02:04:55;;;;;;;0.10;0.10;;;15.10;99.90;;;;;;4989465;28;20436;-86
2023/07/19 02:07:20;;;;;;;0.10;0.10;;;15.10;99.90;;;;;;4989615;28;20283;-83
2023/07/19 02:09:46;;;;;;;0.10;0.10;;;15.10;99.90;;;;;;4982203;28;20313;-84
2023/07/19 02:12:12;;;;;;;0.10;0.10;;;15.00;99.90;;;;;;4986951;28;20272;-83
2023/07/19 02:14:37;;;;;;;0.10;0.10;;;15.00;99.90;;;;;;4990267;28;21108;-84
2023/07/19 02:17:03;;;;;;;0.10;0.10;;;15.00;99.90;;;;;;4989082;28;20189;-83
2023/07/19 02:19:29;;;;;;;0.10;0.10;;;14.90;99.90;;;;;;4971995;28;20640;-83
2023/07/19 02:21:54;;;;;;;0.10;0.10;;;15.00;99.90;;;;;;4987583;28;20884;-83
2023/07/19 02:24:20;;;;;;;0.10;0.10;;;15.10;99.90;;;;;;4980348;28;20431;-83
2023/07/19 02:26:45;;;;;;;0.10;0.10;;;15.10;99.90;;;;;;4969294;28;20728;-83
2023/07/19 02:29:10;;;;;;;0.10;0.10;;;15.00;99.90;;;;;;4970717;28;20185;-84
2023/07/19 02:31:37;;;;;;;0.10;0.10;;;15.20;99.90;;;;;;4973317;28;20223;-84
2023/07/19 02:34:05;;;;;;;0.10;0.10;;;15.10;99.90;;;;;;4986256;28;20188;-83
2023/07/19 02:36:31;;;;;;;0.10;0.10;;;15.10;99.90;;;;;;4986027;28;20518;-84
2023/07/19 02:38:56;;;;;;;0.10;0.10;;;15.00;99.90;;;;;;4987535;28;21011;-83
2023/07/19 02:41:22;;;;;;;0.10;0.10;;;15.10;99.90;;;;;;4986417;28;20209;-83
2023/07/19 02:43:47;;;;;;;0.10;0.10;;;15.00;99.90;;;;;;4987773;28;20311;-83
2023/07/19 02:46:13;;;;;;;0.10;0.10;;;15.00;99.90;;;;;;4987650;28;20272;-83
2023/07/19 02:48:38;;;;;;;0.10;0.10;;;15.00;99.90;;;;;;4984461;28;20220;-83
2023/07/19 02:51:04;;;;;;;0.10;0.10;;;14.90;99.90;;;;;;4981224;28;20192;-83
2023/07/19 02:53:29;;;;;;;0.10;0.10;;;14.90;99.90;;;;;;4988355;28;20181;-83
2023/07/19 02:55:55;;;;;;;0.10;0.10;;;14.80;99.90;;;;;;4988986;28;20228;-83
2023/07/19 02:58:20;;;;;;;0.10;0.10;;;14.80;99.90;;;;;;4985785;28;20557;-83
2023/07/19 03:00:46;;;;;;;0.10;0.10;;;14.70;99.90;;;;;;4985785;28;20189;-83
2023/07/19 03:03:12;;;;;;;0.10;0.10;;;14.80;99.90;;;;;;4989261;28;20221;-83
2023/07/19 03:05:42;;;;;;;0.10;0.10;;;14.80;99.90;;;;;;4988725;28;20197;-83
2023/07/19 03:08:08;;;;;;;0.10;0.10;;;14.90;99.90;;;;;;4970768;28;21120;-82
2023/07/19 03:10:34;;;;;;;0.10;0.10;;;14.70;99.90;;;;;;4988791;28;20459;-83
2023/07/19 03:12:59;;;;;;;0.10;0.10;;;14.90;99.90;;;;;;4988281;28;20905;-83
2023/07/19 03:15:25;;;;;;;0.10;0.10;;;14.90;99.90;;;;;;4972487;28;20193;-83
2023/07/19 03:17:50;;;;;;;0.20;0.20;;;14.90;99.90;;;;;;4970320;28;20193;-83
2023/07/19 03:20:16;;;;;;;0.10;0.10;;;14.80;99.90;;;;;;4991400;28;20220;-83
2023/07/19 03:22:41;;;;;;;0.10;0.10;;;14.90;99.90;;;;;;4972927;28;20256;-83
2023/07/19 03:25:07;;;;;;;0.10;0.10;;;15.00;99.90;;;;;;4993020;28;20186;-83
2023/07/19 03:27:33;;;;;;;0.10;0.10;;;14.90;99.90;;;;;;4990982;28;20203;-82
2023/07/19 03:29:59;;;;;;;0.10;0.10;;;14.90;99.90;;;;;;4984011;28;20193;-83
2023/07/19 03:32:25;;;;;;;0.10;0.10;;;14.80;99.90;;;;;;4991914;28;20185;-83
2023/07/19 03:34:50;;;;;;;0.10;0.10;;;14.80;99.90;;;;;;4990367;28;20479;-83
2023/07/19 03:37:16;;;;;;;0.10;0.10;;;14.80;99.90;;;;;;4990470;28;20189;-82
2023/07/19 03:39:41;;;;;;;0.10;0.10;;;14.90;99.90;;;;;;4989718;28;20213;-82
2023/07/19 03:42:09;;;;;;;0.10;0.10;;;14.90;99.90;;;;;;4993375;28;20873;-83
2023/07/19 03:44:34;;;;;;;0.10;0.10;;;14.90;99.90;;;;;;4992418;28;20247;-83
2023/07/19 03:47:00;;;;;;;0.10;0.10;;;14.90;99.90;;;;;;4982324;28;20685;-82
2023/07/19 03:49:25;;;;;;;0.10;0.10;;;14.80;99.90;;;;;;4988585;28;20212;-83
2023/07/19 03:51:51;;;;;;;0.10;0.10;;;14.80;99.90;;;;;;4989211;28;20196;-83
2023/07/19 03:54:17;;;;;;;0.10;0.10;;;14.70;99.90;;;;;;4974771;28;20192;-84
2023/07/19 03:56:43;;;;;;;0.10;0.10;;;14.70;99.90;;;;;;4992358;28;21008;-83
2023/07/19 03:59:09;;;;;;;0.10;0.10;;;14.70;99.90;;;;;;4991049;28;20534;-83
2023/07/19 04:01:34;;;;;;;0.10;0.10;;;14.70;99.90;;;;;;4990714;28;20217;-82
2023/07/19 04:04:00;;;;;;;0.10;0.10;;;14.60;99.90;;;;;;4990166;28;20555;-83
2023/07/19 04:06:25;;;;;;;0.10;0.10;;;14.70;99.90;;;;;;4990256;28;20216;-83
2023/07/19 04:08:51;;;;;;;0.10;0.10;;;14.70;99.90;;;;;;4990776;28;20240;-83
2023/07/19 04:11:16;;;;;;;0.10;0.10;;;14.70;99.90;;;;;;4988449;28;20645;-82
2023/07/19 04:13:42;;;;;;;0.10;0.10;;;14.80;99.90;;;;;;4990747;28;20716;-83
2023/07/19 04:16:07;;;;;;;0.10;0.10;;;14.80;99.90;;;;;;4991075;28;20192;-83
2023/07/19 04:18:32;;;;;;;0.10;0.10;;;14.80;99.90;;;;;;4990343;28;20185;-83
2023/07/19 04:20:58;;;;;;;0.10;0.10;;;14.90;99.90;;;;;;4990767;28;20236;-83
2023/07/19 04:23:24;;;;;;;0.10;0.10;;;15.00;99.90;;;;;;4989502;28;20217;-83
2023/07/19 04:25:50;;;;;;;0.10;0.10;;;15.00;99.90;;;;;;4989728;28;20185;-83
2023/07/19 04:28:16;;;;;;;0.10;0.10;;;15.00;99.90;;;;;;4991089;28;20828;-83
2023/07/19 04:30:42;;;;;;;0.10;0.10;;;15.00;99.90;;;;;;4985481;28;20204;-82
2023/07/19 04:33:08;;;;;;;0.10;0.10;;;14.90;99.90;;;;;;4971074;28;20444;-83
2023/07/19 04:35:33;;;;;;;0.10;0.10;;;14.90;99.90;;;;;;4987719;28;20293;-83
2023/07/19 04:37:59;;;;;;;0.10;0.10;;;14.90;99.90;;;;;;4985473;28;20448;-83
2023/07/19 04:40:25;;;;;;;0.10;0.10;;;15.00;99.90;;;;;;4984870;28;20650;-83
2023/07/19 04:42:50;;;;;;;0.10;0.10;;;15.00;99.90;;;;;;4973557;28;20712;-83
2023/07/19 04:45:16;;;;;;;0.10;0.10;;;15.00;99.90;;;;;;4990935;28;20173;-83
2023/07/19 04:47:41;;;;;;;0.10;0.10;;;15.00;99.90;;;;;;4990317;28;20197;-83
2023/07/19 04:50:09;;;;;;;0.10;0.10;;;15.10;99.90;;;;;;4987302;28;20358;-83
2023/07/19 04:52:35;;;;;;;0.10;0.10;;;14.90;99.90;;;;;;4988246;28;20189;-83
2023/07/19 04:55:05;;;;;;;0.10;0.10;;;14.90;99.90;;;;;;4991085;28;21007;-82
2023/07/19 04:57:31;;;;;;;0.10;0.10;;;14.90;99.90;;;;;;4990160;28;20458;-83
2023/07/19 04:59:56;;;;;;;0.10;0.10;;;14.90;99.90;;;;;;4985557;28;20448;-83
2023/07/19 05:02:22;;;;;;;0.10;0.10;;;14.80;99.90;;;;;;4963238;28;20287;-83
2023/07/19 05:04:47;;;;;;;0.10;0.10;;;14.90;99.90;;;;;;4988263;28;20225;-84
2023/07/19 05:07:14;;;;;;;0.10;0.10;;;14.90;99.90;;;;;;4985830;28;20193;-83
2023/07/19 05:09:41;;;;;;;0.10;0.10;;;15.00;99.90;;;;;;4988980;28;20669;-83
2023/07/19 05:12:08;;;;;;;0.10;0.10;;;14.90;99.90;;;;;;4987249;28;20443;-84
2023/07/19 05:14:33;;;;;;;0.10;0.10;;;15.00;99.90;;;;;;4980173;28;20498;-85
2023/07/19 05:16:59;;;;;;;0.10;0.10;;;14.90;99.90;;;;;;4987741;28;20440;-84
2023/07/19 05:19:24;;;;;;;0.10;0.10;;;15.00;99.90;;;;;;4990538;28;20259;-85
2023/07/19 05:21:50;;;;;;;0.10;0.10;;;14.90;99.90;;;;;;4986507;28;20224;-85
2023/07/19 05:24:15;;;;;;;0.10;0.10;;;14.90;99.90;;;;;;4986926;28;20819;-84
2023/07/19 05:26:41;;;;;;;0.10;0.10;;;14.90;99.90;;;;;;4984897;28;20587;-84
2023/07/19 05:29:07;;;;;;;0.10;0.10;;;15.00;99.90;;;;;;4985718;28;20196;-83
2023/07/19 05:31:35;;;;;;;0.10;0.10;;;14.90;99.90;;;;;;4983031;28;20328;-84
2023/07/19 05:34:01;;;;;;;0.10;0.10;;;14.90;99.90;;;;;;4984097;28;20551;-83
2023/07/19 05:36:26;;;;;;;0.13;0.13;;;14.90;99.90;;;;;;4980893;28;21039;-83
2023/07/19 05:38:52;;;;;;;0.10;0.10;;;14.80;99.90;;;;;;4981956;28;20436;-83
2023/07/19 05:41:17;;;;;;;0.10;0.10;;;14.80;99.90;;;;;;4985346;28;20209;-82
2023/07/19 05:43:43;;;;;;;0.10;0.10;;;14.80;99.90;;;;;;4971442;28;20237;-83
2023/07/19 05:46:09;;;;;;;0.10;0.10;;;14.70;99.90;;;;;;4985084;28;20247;-84
2023/07/19 05:48:35;;;;;;;0.10;0.10;;;14.80;99.90;;;;;;4984957;28;20197;-83
2023/07/19 05:51:02;;;;;;;0.10;0.10;;;14.50;99.90;;;;;;4987239;28;21165;-84
2023/07/19 05:53:28;;;;;;;0.10;0.10;;;14.60;99.90;;;;;;4986109;28;21039;-84
2023/07/19 05:55:53;;;;;;;0.10;0.10;;;14.80;99.90;;;;;;4986014;28;20475;-82
2023/07/19 05:58:19;;;;;;;0.10;0.10;;;14.80;99.90;;;;;;4984971;28;20264;-83
2023/07/19 06:00:46;;;;;;;0.10;0.10;;;14.80;99.90;;;;;;4978868;28;20197;-85
2023/07/19 06:03:12;;;;;;;0.10;0.10;;;14.80;99.90;;;;;;4970850;28;20487;-83
2023/07/19 06:05:38;;;;;;;0.10;0.10;;;14.70;99.90;;;;;;4985881;28;20851;-82
2023/07/19 06:08:04;;;;;;;0.10;0.10;;;14.90;99.90;;;;;;4986568;28;20216;-83
2023/07/19 06:10:29;;;;;;;0.10;0.10;;;15.00;99.90;;;;;;4988031;28;20494;-83
2023/07/19 06:12:55;;;;;;;0.10;0.10;;;15.00;99.90;;;;;;4959217;28;20212;-84
2023/07/19 06:15:21;;;;;;;0.10;0.10;;;15.00;99.90;;;;;;4980382;28;20193;-83
2023/07/19 06:17:47;;;;;;;0.10;0.10;;;14.90;99.90;;;;;;4987461;28;20276;-82
2023/07/19 06:20:13;;;;;;;0.10;0.10;;;15.00;99.90;;;;;;4980927;28;20468;-82
2023/07/19 06:22:39;;;;;;;0.10;0.10;;;15.00;99.90;;;;;;4965039;28;20254;-82
2023/07/19 06:25:05;;;;;;;0.10;0.10;;;15.10;99.90;;;;;;4984595;28;20477;-82
2023/07/19 06:27:31;;;;;;;0.10;0.10;;;15.10;99.90;;;;;;4982512;28;20223;-81
2023/07/19 06:29:57;;;;;;;0.10;0.10;;;15.00;99.90;;;;;;4984005;28;20955;-81
2023/07/19 06:32:23;;;;;;;0.10;0.10;;;15.00;99.90;;;;;;4980932;28;20197;-81
2023/07/19 06:34:48;;;;;;;0.10;0.10;;;15.00;99.90;;;;;;4977906;28;20511;-82
2023/07/19 06:37:14;;;;;;;0.10;0.10;;;15.10;99.90;;;;;;4961527;28;20197;-82
2023/07/19 06:39:40;;;;;;;0.10;0.10;;;15.10;99.90;;;;;;4965967;28;20239;-83
2023/07/19 06:42:05;;;;;;;0.10;0.10;;;15.10;99.90;;;;;;4964662;28;20469;-83
2023/07/19 06:44:31;;;;;;;0.10;0.10;;;15.10;99.90;;;;;;4961812;28;20580;-82
2023/07/19 06:46:59;;;;;;;0.10;0.10;;;15.10;99.90;;;;;;4963677;28;20219;-82
2023/07/19 06:49:25;;;;;;;0.10;0.10;;;15.10;99.90;;;;;;4985336;28;20193;-81
2023/07/19 06:51:50;;;;;;;0.10;0.10;;;15.10;99.90;;;;;;4978413;28;20449;-82
2023/07/19 06:54:16;;;;;;;0.10;0.10;;;15.20;99.90;;;;;;4974146;28;20184;-82
2023/07/19 06:56:41;;;;;;;0.10;0.10;;;15.20;99.90;;;;;;4989429;28;20201;-81
2023/07/19 06:59:07;;;;;;;0.10;0.10;;;15.20;99.90;;;;;;4991738;28;20193;-82
2023/07/19 07:01:32;;;;;;;0.10;0.10;;;15.20;99.90;;;;;;4973694;28;20272;-82
2023/07/19 07:03:57;;;;;;;0.10;0.10;;;15.20;99.90;;;;;;4991441;28;20676;-82
2023/07/19 07:06:23;;;;;;;0.10;0.10;;;15.20;99.90;;;;;;4990622;28;20192;-82
2023/07/19 07:08:48;;;;;;;0.10;0.10;;;15.20;99.90;;;;;;4986705;28;20200;-82
2023/07/19 07:11:14;;;;;;;0.10;0.10;;;15.20;99.90;;;;;;4983238;28;20197;-82
2023/07/19 07:13:39;;;;;;;0.10;0.10;;;15.20;99.90;;;;;;4989792;28;20192;-82
2023/07/19 07:16:05;;;;;;;0.10;0.10;;;15.10;99.90;;;;;;4988695;28;20272;-82
2023/07/19 07:18:30;;;;;;;0.10;0.10;;;15.20;99.90;;;;;;4974935;28;20277;-82
2023/07/19 07:20:56;;;;;;;0.10;0.10;;;15.30;99.90;;;;;;4978562;28;20274;-83
2023/07/19 07:23:21;;;;;;;0.10;0.10;;;15.40;99.90;;;;;;4988552;28;20685;-83
2023/07/19 07:25:53;;;;;;;0.10;0.10;;;15.40;99.90;;;;;;4986035;28;20264;-83
2023/07/19 07:28:19;;;;;;;0.10;0.10;;;15.40;99.90;;;;;;4968298;28;20368;-83
2023/07/19 07:30:45;;;;;;;0.10;0.10;;;15.40;99.90;;;;;;4985779;28;21007;-82
2023/07/19 07:33:10;;;;;;;0.10;0.10;;;15.40;99.90;;;;;;4973063;28;20216;-83
2023/07/19 07:35:36;;;;;;;0.10;0.10;;;15.30;99.90;;;;;;4988741;28;20650;-82
2023/07/19 07:38:01;;;;;;;0.10;0.10;;;15.10;99.90;;;;;;4988490;28;20272;-82
2023/07/19 07:40:27;;;;;;;0.10;0.10;;;15.10;99.90;;;;;;4972945;28;20181;-82
2023/07/19 07:42:53;;;;;;;0.10;0.10;;;15.00;99.90;;;;;;4971202;28;20245;-83
2023/07/19 07:45:18;;;;;;;0.10;0.10;;;15.00;99.90;;;;;;4970308;28;20225;-82
2023/07/19 07:47:44;;;;;;;0.10;0.10;;;15.30;99.90;;;;;;4970546;28;20650;-83
2023/07/19 07:50:10;;;;;;;0.10;0.10;;;15.30;99.90;;;;;;4970900;28;20221;-82
2023/07/19 07:52:36;;;;;;;0.10;0.10;;;15.50;99.90;;;;;;4971528;28;20662;-82
2023/07/19 07:55:02;;;;;;;0.10;0.10;;;15.50;99.90;;;;;;4969332;28;20238;-82
2023/07/19 07:57:30;;;;;;;0.10;0.10;;;15.50;99.90;;;;;;4968745;28;20437;-82
2023/07/19 07:59:55;;;;;;;0.10;0.10;;;15.50;99.90;;;;;;4969146;28;20461;-84
2023/07/19 08:02:21;;;;;;;0.10;0.10;;;15.60;99.90;;;;;;4957784;28;20908;-78
2023/07/19 08:04:47;;;;;;;0.10;0.10;;;15.30;99.90;;;;;;4959766;28;20246;-82
2023/07/19 08:07:13;;;;;;;0.10;0.10;;;15.20;99.90;;;;;;4962279;28;20256;-83
2023/07/19 08:09:39;;;;;;;0.10;0.10;;;15.40;99.90;;;;;;4960546;28;20935;-83
2023/07/19 08:12:05;;;;;;;0.10;0.10;;;15.30;99.90;;;;;;4959925;28;20189;-84
2023/07/19 08:14:30;;;;;;;0.10;0.10;;;15.20;99.90;;;;;;4960258;28;20194;-83
2023/07/19 08:16:56;;;;;;;0.10;0.10;;;15.40;99.90;;;;;;4959423;28;20799;-81
2023/07/19 08:19:21;;;;;;;0.10;0.10;;;15.30;99.90;;;;;;4962463;28;20186;-82
2023/07/19 08:21:47;;;;;;;0.10;0.10;;;15.30;99.90;;;;;;4959785;28;20198;-84
2023/07/19 08:24:12;;;;;;;0.10;0.10;;;15.40;99.90;;;;;;4959540;28;20200;-86
2023/07/19 08:26:39;;;;;;;0.10;0.10;;;15.40;99.90;;;;;;4961582;28;20277;-84
2023/07/19 08:29:05;;;;;;;0.10;0.10;;;15.40;99.90;;;;;;4962357;28;20198;-86
2023/07/19 08:31:30;;;;;;;0.10;0.10;;;15.40;99.90;;;;;;4956119;28;20445;-82
2023/07/19 08:33:56;;;;;;;0.10;0.10;;;15.40;99.90;;;;;;4969665;28;20186;-83
2023/07/19 08:36:21;;;;;;;0.10;0.10;;;15.30;99.90;;;;;;4966103;28;20272;-82
2023/07/19 08:38:47;;;;;;;0.10;0.10;;;15.30;99.90;;;;;;4963644;28;20224;-83
2023/07/19 08:41:17;;;;;;;0.10;0.10;;;15.30;99.90;;;;;;4967650;28;20193;-83
2023/07/19 08:43:44;;;;;;;0.10;0.10;;;15.40;99.90;;;;;;4971285;28;21487;-81
2023/07/19 08:46:14;;;;;;;0.10;0.10;;;15.40;99.90;;;;;;4958625;28;20471;-81
2023/07/19 08:48:44;;;;;;;0.10;0.10;;;15.50;99.90;;;;;;4972715;28;20523;-81
2023/07/19 08:51:11;;;;;;;0.10;0.10;;;15.40;99.90;;;;;;4986204;28;20857;-84
2023/07/19 08:53:37;;;;;;;0.10;0.10;;;15.40;99.90;;;;;;4992204;28;20429;-81
2023/07/19 08:56:04;;;;;;;0.10;0.10;;;15.30;99.90;;;;;;4974354;28;20952;-83
2023/07/19 08:58:29;;;;;;;0.10;0.10;;;15.10;99.90;;;;;;4991238;28;20225;-83
2023/07/19 09:00:55;;;;;;;0.10;0.10;;;15.10;99.90;;;;;;4986428;28;20894;-83
2023/07/19 09:03:20;;;;;;;0.10;0.10;;;15.20;99.90;;;;;;4985665;28;20651;-83
2023/07/19 09:05:46;;;;;;;0.10;0.10;;;15.20;99.90;;;;;;4972988;28;20184;-83
2023/07/19 09:08:12;;;;;;;0.10;0.10;;;15.20;99.90;;;;;;4987973;28;20193;-81
2023/07/19 09:10:41;;;;;;;0.10;0.10;;;15.20;99.90;;;;;;4990260;28;20201;-81
2023/07/19 09:13:07;;;;;;;0.10;0.10;;;15.30;99.90;;;;;;4972930;28;20804;-83
2023/07/19 09:15:36;;;;;;;0.10;0.10;;;15.30;99.90;;;;;;4982507;28;20445;-80
2023/07/19 09:18:06;;;;;;;0.10;0.10;;;15.30;99.90;;;;;;4989587;28;20560;-81
2023/07/19 09:20:37;;;;;;;0.10;0.10;;;15.50;99.90;;;;;;4982496;28;20433;-83
2023/07/19 09:23:05;;;;;;;0.10;0.10;;;15.50;99.90;;;;;;4988383;28;20480;-82
2023/07/19 09:25:31;;;;;;;0.10;0.10;;;15.60;99.90;;;;;;4988988;28;21166;-81
2023/07/19 09:27:57;;;;;;;0.10;0.10;;;15.60;99.90;;;;;;4988134;28;20412;-82
2023/07/19 09:30:22;;;;;;;0.10;0.10;;;15.60;99.90;;;;;;4990277;28;20968;-83
2023/07/19 09:32:59;;;;;;;0.10;0.10;;;15.70;99.90;;;;;;4970097;28;20207;-83
2023/07/19 09:35:28;;;;;;;0.10;0.10;;;15.60;99.90;;;;;;4970495;28;20193;-83
2023/07/19 09:37:55;;;;;;;0.10;0.10;;;15.60;99.90;;;;;;4990514;28;20448;-83
2023/07/19 09:40:21;;;;;;;0.10;0.10;;;15.40;99.90;;;;;;4965663;28;20452;-83
2023/07/19 09:42:49;;;;;;;0.10;0.10;;;15.40;99.90;;;;;;4985076;28;20525;-83
2023/07/19 09:45:17;;;;;;;0.10;0.10;;;15.40;99.90;;;;;;4971158;28;20968;-82
2023/07/19 09:47:44;;;;;;;0.10;0.10;;;15.30;99.90;;;;;;4958164;28;20448;-82
2023/07/19 09:50:12;;;;;;;0.10;0.10;;;15.20;99.90;;;;;;4961983;28;20445;-83
2023/07/19 09:52:38;;;;;;;0.10;0.10;;;15.30;99.90;;;;;;4988174;28;20451;-83
2023/07/19 09:55:05;;;;;;;0.10;0.10;;;15.40;99.90;;;;;;4990164;28;20447;-83
2023/07/19 09:57:33;;;;;;;0.10;0.10;;;15.40;99.90;;;;;;4988051;28;20460;-83
2023/07/19 09:59:59;;;;;;;0.10;0.10;;;15.40;99.90;;;;;;4988042;28;20435;-83
2023/07/19 10:02:26;;;;;;;0.10;0.10;;;15.40;99.90;;;;;;4988840;28;20543;-83
2023/07/19 10:04:52;;;;;;;0.10;0.10;;;15.30;99.90;;;;;;4979802;28;20437;-84
2023/07/19 10:07:25;;;;;;;0.10;0.10;;;15.20;99.90;;;;;;4971741;28;20467;-82
2023/07/19 10:10:01;;;;;;;0.10;0.10;;;15.10;99.90;;;;;;4984711;28;20189;-81
2023/07/19 10:12:27;;;;;;;0.10;0.10;;;14.90;99.90;;;;;;4979568;28;20493;-82
2023/07/19 10:14:59;;;;;;;0.10;0.10;;;15.00;99.90;;;;;;4980553;28;21076;-83
2023/07/19 10:17:25;;;;;;;0.10;0.10;;;15.20;99.90;;;;;;4971371;28;20448;-84
2023/07/19 10:20:06;;;;;;;0.10;0.10;;;15.20;99.90;;;;;;4965820;28;20440;-81
2023/07/19 10:22:48;;;;;;;0.10;0.10;;;15.20;99.90;;;;;;4987441;28;20216;-81
2023/07/19 10:25:40;;;;;;;0.10;0.10;;;15.40;99.90;;;;;;4986709;28;20440;-82
2023/07/19 10:28:11;;;;;;;0.10;0.10;;;15.50;99.90;;;;;;4958730;28;20527;-83
2023/07/19 10:30:45;;;;;;;0.10;0.10;;;15.60;99.90;;;;;;4961921;28;20858;-82
2023/07/19 10:33:21;;;;;;;0.10;0.10;;;15.80;99.90;;;;;;4977685;28;20475;-82
2023/07/19 10:35:49;;;;;;;0.10;0.10;;;16.00;99.90;;;;;;4988000;28;20436;-82
2023/07/19 10:38:17;;;;;;;0.10;0.10;;;15.70;99.90;;;;;;4990377;28;20425;-82
2023/07/19 10:40:46;;;;;;;0.10;0.10;;;15.30;99.90;;;;;;4979804;28;20444;-82
2023/07/19 10:43:12;;;;;;;0.10;0.10;;;15.30;99.90;;;;;;4957313;28;20490;-82
2023/07/19 10:45:38;;;;;;;0.10;0.10;;;15.30;99.90;;;;;;4961362;28;20904;-82
2023/07/19 10:48:04;;;;;;;0.10;0.10;;;15.20;99.90;;;;;;4986878;28;20890;-81
2023/07/19 10:50:30;;;;;;;0.10;0.10;;;15.00;99.90;;;;;;4973080;28;20174;-83
2023/07/19 10:52:56;;;;;;;0.10;0.10;;;15.10;99.90;;;;;;4972231;28;20452;-82
2023/07/19 10:55:21;;;;;;;0.10;0.10;;;14.90;99.90;;;;;;4974363;28;20189;-82
2023/07/19 10:57:47;;;;;;;0.10;0.10;;;14.90;99.90;;;;;;4958221;28;20661;-82
2023/07/19 11:00:13;;;;;;;0.10;0.10;;;15.10;99.90;;;;;;4981123;28;20185;-83
2023/07/19 11:02:39;;;;;;;0.10;0.10;;;15.20;99.90;;;;;;4974711;28;20495;-81
2023/07/19 11:05:09;;;;;;;0.10;0.10;;;15.30;99.90;;;;;;4986842;28;20424;-83
2023/07/19 11:07:35;;;;;;;0.10;0.10;;;15.40;99.90;;;;;;4982459;28;20468;-83
2023/07/19 11:10:02;;;;;;;0.10;0.10;;;15.50;99.90;;;;;;4981838;28;20454;-82
2023/07/19 11:12:30;;;;;;;0.10;0.10;;;15.60;99.90;;;;;;4957472;28;20436;-82
2023/07/19 11:14:58;;;;;;;0.10;0.10;;;15.50;99.90;;;;;;4988996;28;20444;-81
2023/07/19 11:17:29;;;;;;;0.10;0.10;;;15.30;99.90;;;;;;4984635;28;21055;-82
2023/07/19 11:19:55;;;;;;;0.10;0.10;;;15.30;99.90;;;;;;4970178;28;20466;-82
2023/07/19 11:22:23;;;;;;;0.10;0.10;;;15.50;99.90;;;;;;4985374;28;20566;-83
2023/07/19 11:24:49;;;;;;;0.10;0.10;;;15.80;99.90;;;;;;4983424;28;20869;-82
2023/07/19 11:27:16;;;;;;;0.10;0.10;;;15.60;99.90;;;;;;4965150;28;20451;-82
2023/07/19 11:29:43;;;;;;;0.10;0.10;;;15.70;99.90;;;;;;4986787;28;20455;-80
2023/07/19 11:32:16;;;;;;;0.10;0.10;;;15.50;99.90;;;;;;4985793;28;20450;-80
2023/07/19 11:34:49;;;;;;;0.10;0.10;;;15.70;99.90;;;;;;4986585;28;20464;-82
2023/07/19 11:37:18;;;;;;;0.10;0.10;;;15.60;99.90;;;;;;4985208;28;20583;-82
2023/07/19 11:39:45;;;;;;;0.10;0.10;;;15.70;99.90;;;;;;4989132;28;20511;-82
2023/07/19 11:42:11;;;;;;;0.10;0.10;;;15.80;99.90;;;;;;4981370;28;20538;-82
2023/07/19 11:44:44;;;;;;;0.10;0.10;;;15.90;99.90;;;;;;4985523;28;20579;-82
2023/07/19 11:47:10;;;;;;;0.10;0.10;;;15.90;99.90;;;;;;4986997;28;20661;-82
2023/07/19 11:49:35;;;;;;;0.10;0.10;;;16.00;99.90;;;;;;4990762;28;20540;-82
2023/07/19 11:52:01;;;;;;;0.10;0.10;;;15.90;99.90;;;;;;4991855;28;20530;-82
2023/07/19 11:54:27;;;;;;;0.10;0.10;;;16.20;99.90;;;;;;4991629;28;20197;-83
2023/07/19 11:56:53;;;;;;;0.10;0.10;;;16.50;99.90;;;;;;4988931;28;20197;-83
2023/07/19 11:59:18;;;;;;;0.10;0.10;;;17.20;99.90;;;;;;4990443;28;20456;-83
2023/07/19 12:01:44;;;;;;;0.10;0.10;;;17.90;99.90;;;;;;4982339;28;20189;-82
2023/07/19 12:04:09;;;;;;;0.10;0.10;;;17.70;99.90;;;;;;4992271;28;20288;-83
2023/07/19 12:06:35;;;;;;;0.10;0.10;;;18.10;99.90;;;;;;4974086;28;20192;-83
2023/07/19 12:09:01;;;;;;;0.10;0.10;;;18.00;99.90;;;;;;4975351;28;20643;-82
2023/07/19 12:11:27;;;;;;;0.10;0.10;;;17.90;99.90;;;;;;4989027;28;20185;-83
2023/07/19 12:13:53;;;;;;;0.10;0.10;;;17.70;99.90;;;;;;4992782;28;20538;-83
2023/07/19 12:16:18;;;;;;;0.10;0.10;;;17.60;99.90;;;;;;4985504;28;20205;-84
2023/07/19 12:18:44;;;;;;;0.10;0.10;;;17.60;99.90;;;;;;4990114;28;20637;-82
2023/07/19 12:21:09;;;;;;;0.10;0.00;;;18.20;99.90;;;;;;4990558;28;20193;-83
2023/07/19 12:23:37;;;;;;;0.10;0.10;;;18.70;99.90;;;;;;4988571;28;20638;-82
2023/07/19 12:26:04;;;;;;;0.10;0.07;;;18.60;99.90;;;;;;4986639;28;20656;-82
2023/07/19 12:28:30;;;;;;;0.10;0.00;;;18.60;99.90;;;;;;4971227;28;20964;-84
2023/07/19 12:30:56;;;;;;;0.10;0.00;;;18.90;99.90;;;;;;4985734;28;20491;-83
2023/07/19 12:33:21;;;;;;;0.10;0.00;;;19.00;99.90;;;;;;4985045;28;20200;-83
2023/07/19 12:35:48;;;;;;;0.10;0.00;;;18.60;99.90;;;;;;4968651;28;20645;-84
2023/07/19 12:38:14;;;;;;;0.10;0.00;;;19.10;99.90;;;;;;4990110;28;20193;-84
2023/07/19 12:40:40;;;;;;;0.10;0.00;;;19.80;99.90;;;;;;4988238;28;20463;-84
2023/07/19 12:43:06;;;;;;;0.10;0.00;;;20.00;99.90;;;;;;4973171;28;20499;-84